sensor_id;sensor_type;location;lat;lon;timestamp;P1;durP1;ratioP1;P2;durP2;ratioP2
29206;SDS011;16247;50.840;4.382;2022-11-20T00:03:32;60.03;;;30.30;;
29206;SDS011;16247;50.840;4.382;2022-11-20T00:06:02;61.03;;;29.00;;
29206;SDS011;16247;50.840;4.382;2022-11-20T00:08:32;60.08;;;30.67;;
29206;SDS011;16247;50.840;4.382;2022-11-20T00:11:10;59.88;;;29.65;;
29206;SDS011;16247;50.840;4.382;2022-11-20T00:13:40;63.30;;;29.42;;
29206;SDS011;16247;50.840;4.382;2022-11-20T00:16:06;55.35;;;28.30;;
29206;SDS011;16247;50.840;4.382;2022-11-20T00:18:35;55.95;;;29.23;;
29206;SDS011;16247;50.840;4.382;2022-11-20T00:21:03;54.88;;;28.23;;
29206;SDS011;16247;50.840;4.382;2022-11-20T00:23:33;57.35;;;28.17;;
29206;SDS011;16247;50.840;4.382;2022-11-20T00:26:03;56.67;;;29.52;;
29206;SDS011;16247;50.840;4.382;2022-11-20T00:28:30;59.95;;;29.20;;
29206;SDS011;16247;50.840;4.382;2022-11-20T00:31:02;60.50;;;29.75;;
29206;SDS011;16247;50.840;4.382;2022-11-20T00:36:51;54.92;;;27.42;;
29206;SDS011;16247;50.840;4.382;2022-11-20T00:42:39;58.15;;;29.48;;
29206;SDS011;16247;50.840;4.382;2022-11-20T00:45:05;56.70;;;29.05;;
29206;SDS011;16247;50.840;4.382;2022-11-20T00:47:30;56.05;;;28.58;;
29206;SDS011;16247;50.840;4.382;2022-11-20T00:49:56;55.45;;;29.02;;
29206;SDS011;16247;50.840;4.382;2022-11-20T00:52:23;54.80;;;29.02;;
29206;SDS011;16247;50.840;4.382;2022-11-20T00:54:48;51.47;;;28.80;;
29206;SDS011;16247;50.840;4.382;2022-11-20T00:57:14;57.20;;;27.88;;
29206;SDS011;16247;50.840;4.382;2022-11-20T00:59:40;55.30;;;28.63;;
29206;SDS011;16247;50.840;4.382;2022-11-20T01:02:07;54.03;;;28.40;;
29206;SDS011;16247;50.840;4.382;2022-11-20T01:07:03;58.55;;;32.13;;
29206;SDS011;16247;50.840;4.382;2022-11-20T01:09:30;52.92;;;27.17;;
29206;SDS011;16247;50.840;4.382;2022-11-20T01:11:56;47.95;;;26.98;;
29206;SDS011;16247;50.840;4.382;2022-11-20T01:14:22;51.22;;;27.05;;
29206;SDS011;16247;50.840;4.382;2022-11-20T01:16:49;55.92;;;27.35;;
29206;SDS011;16247;50.840;4.382;2022-11-20T01:19:16;54.33;;;28.88;;
29206;SDS011;16247;50.840;4.382;2022-11-20T01:21:51;52.00;;;26.52;;
29206;SDS011;16247;50.840;4.382;2022-11-20T01:24:18;50.35;;;27.58;;
29206;SDS011;16247;50.840;4.382;2022-11-20T01:26:46;49.92;;;26.88;;
29206;SDS011;16247;50.840;4.382;2022-11-20T01:29:15;52.13;;;27.08;;
29206;SDS011;16247;50.840;4.382;2022-11-20T01:31:45;54.85;;;27.05;;
29206;SDS011;16247;50.840;4.382;2022-11-20T01:34:15;51.63;;;28.33;;
29206;SDS011;16247;50.840;4.382;2022-11-20T01:36:42;51.50;;;27.50;;
29206;SDS011;16247;50.840;4.382;2022-11-20T01:39:13;60.97;;;29.45;;
29206;SDS011;16247;50.840;4.382;2022-11-20T01:41:43;51.25;;;28.75;;
29206;SDS011;16247;50.840;4.382;2022-11-20T01:47:17;50.70;;;27.58;;
29206;SDS011;16247;50.840;4.382;2022-11-20T01:52:50;50.75;;;27.00;;
29206;SDS011;16247;50.840;4.382;2022-11-20T01:55:23;51.92;;;27.95;;
29206;SDS011;16247;50.840;4.382;2022-11-20T01:57:52;54.70;;;29.45;;
29206;SDS011;16247;50.840;4.382;2022-11-20T02:00:18;58.38;;;28.77;;
29206;SDS011;16247;50.840;4.382;2022-11-20T02:02:47;49.20;;;25.97;;
29206;SDS011;16247;50.840;4.382;2022-11-20T02:05:18;52.80;;;28.42;;
29206;SDS011;16247;50.840;4.382;2022-11-20T02:07:52;54.70;;;28.45;;
29206;SDS011;16247;50.840;4.382;2022-11-20T02:10:21;52.67;;;28.05;;
29206;SDS011;16247;50.840;4.382;2022-11-20T02:12:47;50.38;;;27.67;;
29206;SDS011;16247;50.840;4.382;2022-11-20T02:15:32;55.00;;;29.73;;
29206;SDS011;16247;50.840;4.382;2022-11-20T02:17:58;57.47;;;28.80;;
29206;SDS011;16247;50.840;4.382;2022-11-20T02:20:24;56.83;;;28.85;;
29206;SDS011;16247;50.840;4.382;2022-11-20T02:22:55;58.97;;;27.98;;
29206;SDS011;16247;50.840;4.382;2022-11-20T02:25:24;54.55;;;27.88;;
29206;SDS011;16247;50.840;4.382;2022-11-20T02:27:53;51.65;;;25.80;;
29206;SDS011;16247;50.840;4.382;2022-11-20T02:30:19;58.50;;;29.27;;
29206;SDS011;16247;50.840;4.382;2022-11-20T02:32:45;51.30;;;24.50;;
29206;SDS011;16247;50.840;4.382;2022-11-20T02:37:48;54.75;;;25.60;;
29206;SDS011;16247;50.840;4.382;2022-11-20T02:40:17;52.58;;;25.67;;
29206;SDS011;16247;50.840;4.382;2022-11-20T02:42:43;48.35;;;24.17;;
29206;SDS011;16247;50.840;4.382;2022-11-20T02:45:09;54.85;;;25.48;;
29206;SDS011;16247;50.840;4.382;2022-11-20T02:47:35;50.95;;;24.08;;
29206;SDS011;16247;50.840;4.382;2022-11-20T02:50:02;54.30;;;26.48;;
29206;SDS011;16247;50.840;4.382;2022-11-20T02:52:28;59.83;;;25.77;;
29206;SDS011;16247;50.840;4.382;2022-11-20T02:54:54;57.40;;;26.13;;
29206;SDS011;16247;50.840;4.382;2022-11-20T02:57:19;55.72;;;25.95;;
29206;SDS011;16247;50.840;4.382;2022-11-20T02:59:45;56.50;;;25.63;;
29206;SDS011;16247;50.840;4.382;2022-11-20T03:02:11;52.50;;;26.05;;
29206;SDS011;16247;50.840;4.382;2022-11-20T03:04:36;48.15;;;23.42;;
29206;SDS011;16247;50.840;4.382;2022-11-20T03:07:02;49.53;;;24.35;;
29206;SDS011;16247;50.840;4.382;2022-11-20T03:09:28;56.92;;;25.00;;
29206;SDS011;16247;50.840;4.382;2022-11-20T03:11:54;49.58;;;23.85;;
29206;SDS011;16247;50.840;4.382;2022-11-20T03:14:20;40.08;;;20.20;;
29206;SDS011;16247;50.840;4.382;2022-11-20T03:16:46;40.67;;;19.63;;
29206;SDS011;16247;50.840;4.382;2022-11-20T03:19:11;42.72;;;18.05;;
29206;SDS011;16247;50.840;4.382;2022-11-20T03:21:37;46.20;;;21.58;;
29206;SDS011;16247;50.840;4.382;2022-11-20T03:24:04;43.47;;;20.88;;
29206;SDS011;16247;50.840;4.382;2022-11-20T03:26:31;41.55;;;20.20;;
29206;SDS011;16247;50.840;4.382;2022-11-20T03:28:58;42.33;;;20.10;;
29206;SDS011;16247;50.840;4.382;2022-11-20T03:31:26;42.15;;;20.35;;
29206;SDS011;16247;50.840;4.382;2022-11-20T03:33:53;43.45;;;20.67;;
29206;SDS011;16247;50.840;4.382;2022-11-20T03:36:21;41.00;;;20.00;;
29206;SDS011;16247;50.840;4.382;2022-11-20T03:38:47;42.67;;;20.35;;
29206;SDS011;16247;50.840;4.382;2022-11-20T03:41:17;45.75;;;21.77;;
29206;SDS011;16247;50.840;4.382;2022-11-20T03:43:48;45.20;;;21.70;;
29206;SDS011;16247;50.840;4.382;2022-11-20T03:46:16;47.72;;;21.45;;
29206;SDS011;16247;50.840;4.382;2022-11-20T03:48:42;47.00;;;22.83;;
29206;SDS011;16247;50.840;4.382;2022-11-20T03:54:30;48.30;;;22.48;;
29206;SDS011;16247;50.840;4.382;2022-11-20T03:57:03;48.90;;;22.05;;
29206;SDS011;16247;50.840;4.382;2022-11-20T03:59:29;49.58;;;24.00;;
29206;SDS011;16247;50.840;4.382;2022-11-20T04:01:55;51.08;;;23.33;;
29206;SDS011;16247;50.840;4.382;2022-11-20T04:04:21;52.25;;;23.20;;
29206;SDS011;16247;50.840;4.382;2022-11-20T04:06:46;55.05;;;22.30;;
29206;SDS011;16247;50.840;4.382;2022-11-20T04:09:12;51.30;;;22.95;;
29206;SDS011;16247;50.840;4.382;2022-11-20T04:11:39;50.65;;;23.83;;
29206;SDS011;16247;50.840;4.382;2022-11-20T04:14:06;50.42;;;22.00;;
29206;SDS011;16247;50.840;4.382;2022-11-20T04:16:37;48.97;;;22.00;;
29206;SDS011;16247;50.840;4.382;2022-11-20T04:19:04;55.78;;;23.98;;
29206;SDS011;16247;50.840;4.382;2022-11-20T04:21:32;54.90;;;25.17;;
29206;SDS011;16247;50.840;4.382;2022-11-20T04:23:58;56.90;;;25.27;;
29206;SDS011;16247;50.840;4.382;2022-11-20T04:26:25;57.47;;;25.42;;
29206;SDS011;16247;50.840;4.382;2022-11-20T04:28:52;60.35;;;24.70;;
29206;SDS011;16247;50.840;4.382;2022-11-20T04:31:21;55.20;;;23.73;;
29206;SDS011;16247;50.840;4.382;2022-11-20T04:33:48;58.83;;;26.23;;
29206;SDS011;16247;50.840;4.382;2022-11-20T04:36:15;58.25;;;24.23;;
29206;SDS011;16247;50.840;4.382;2022-11-20T04:41:17;66.95;;;27.15;;
29206;SDS011;16247;50.840;4.382;2022-11-20T04:43:48;65.05;;;25.88;;
29206;SDS011;16247;50.840;4.382;2022-11-20T04:48:45;59.67;;;24.58;;
29206;SDS011;16247;50.840;4.382;2022-11-20T04:51:12;64.18;;;26.85;;
29206;SDS011;16247;50.840;4.382;2022-11-20T04:53:38;59.25;;;26.25;;
29206;SDS011;16247;50.840;4.382;2022-11-20T04:56:07;58.30;;;25.67;;
29206;SDS011;16247;50.840;4.382;2022-11-20T04:58:35;64.43;;;25.65;;
29206;SDS011;16247;50.840;4.382;2022-11-20T05:01:11;66.75;;;26.83;;
29206;SDS011;16247;50.840;4.382;2022-11-20T05:03:42;66.65;;;23.98;;
29206;SDS011;16247;50.840;4.382;2022-11-20T05:06:09;63.75;;;27.02;;
29206;SDS011;16247;50.840;4.382;2022-11-20T05:08:36;59.23;;;25.40;;
29206;SDS011;16247;50.840;4.382;2022-11-20T05:11:08;66.00;;;28.80;;
29206;SDS011;16247;50.840;4.382;2022-11-20T05:13:38;66.15;;;26.52;;
29206;SDS011;16247;50.840;4.382;2022-11-20T05:16:08;66.47;;;26.02;;
29206;SDS011;16247;50.840;4.382;2022-11-20T05:18:38;58.40;;;25.70;;
29206;SDS011;16247;50.840;4.382;2022-11-20T05:21:05;64.53;;;25.75;;
29206;SDS011;16247;50.840;4.382;2022-11-20T05:23:32;64.43;;;26.08;;
29206;SDS011;16247;50.840;4.382;2022-11-20T05:25:59;62.03;;;25.02;;
29206;SDS011;16247;50.840;4.382;2022-11-20T05:28:26;66.60;;;27.10;;
29206;SDS011;16247;50.840;4.382;2022-11-20T05:30:53;67.25;;;26.80;;
29206;SDS011;16247;50.840;4.382;2022-11-20T05:33:19;67.85;;;25.20;;
29206;SDS011;16247;50.840;4.382;2022-11-20T05:35:45;67.53;;;26.77;;
29206;SDS011;16247;50.840;4.382;2022-11-20T05:38:11;70.97;;;27.92;;
29206;SDS011;16247;50.840;4.382;2022-11-20T05:40:36;67.60;;;28.00;;
29206;SDS011;16247;50.840;4.382;2022-11-20T05:43:02;60.42;;;25.05;;
29206;SDS011;16247;50.840;4.382;2022-11-20T05:45:29;63.13;;;26.88;;
29206;SDS011;16247;50.840;4.382;2022-11-20T05:47:57;66.45;;;27.40;;
29206;SDS011;16247;50.840;4.382;2022-11-20T05:50:26;66.97;;;27.38;;
29206;SDS011;16247;50.840;4.382;2022-11-20T05:52:53;64.80;;;28.13;;
29206;SDS011;16247;50.840;4.382;2022-11-20T05:55:19;64.70;;;26.95;;
29206;SDS011;16247;50.840;4.382;2022-11-20T05:57:44;63.35;;;26.08;;
29206;SDS011;16247;50.840;4.382;2022-11-20T06:00:10;63.70;;;25.15;;
29206;SDS011;16247;50.840;4.382;2022-11-20T06:02:36;64.88;;;24.80;;
29206;SDS011;16247;50.840;4.382;2022-11-20T06:05:02;64.32;;;25.80;;
29206;SDS011;16247;50.840;4.382;2022-11-20T06:07:28;58.38;;;25.23;;
29206;SDS011;16247;50.840;4.382;2022-11-20T06:09:53;72.80;;;28.23;;
29206;SDS011;16247;50.840;4.382;2022-11-20T06:12:20;62.45;;;26.05;;
29206;SDS011;16247;50.840;4.382;2022-11-20T06:14:45;77.00;;;28.38;;
29206;SDS011;16247;50.840;4.382;2022-11-20T06:17:11;69.95;;;35.97;;
29206;SDS011;16247;50.840;4.382;2022-11-20T06:19:37;74.65;;;27.65;;
29206;SDS011;16247;50.840;4.382;2022-11-20T06:22:02;69.03;;;27.67;;
29206;SDS011;16247;50.840;4.382;2022-11-20T06:24:29;70.72;;;27.83;;
29206;SDS011;16247;50.840;4.382;2022-11-20T06:26:55;68.15;;;27.85;;
29206;SDS011;16247;50.840;4.382;2022-11-20T06:29:21;70.80;;;26.60;;
29206;SDS011;16247;50.840;4.382;2022-11-20T06:31:49;68.72;;;26.83;;
29206;SDS011;16247;50.840;4.382;2022-11-20T06:34:18;76.93;;;26.52;;
29206;SDS011;16247;50.840;4.382;2022-11-20T06:36:44;71.50;;;26.92;;
29206;SDS011;16247;50.840;4.382;2022-11-20T06:39:10;76.80;;;28.25;;
29206;SDS011;16247;50.840;4.382;2022-11-20T06:41:36;66.60;;;25.30;;
29206;SDS011;16247;50.840;4.382;2022-11-20T06:44:03;65.45;;;26.45;;
29206;SDS011;16247;50.840;4.382;2022-11-20T06:46:33;68.45;;;24.88;;
29206;SDS011;16247;50.840;4.382;2022-11-20T06:48:59;65.78;;;27.27;;
29206;SDS011;16247;50.840;4.382;2022-11-20T06:51:25;69.65;;;26.80;;
29206;SDS011;16247;50.840;4.382;2022-11-20T06:53:52;61.65;;;26.70;;
29206;SDS011;16247;50.840;4.382;2022-11-20T06:58:50;64.47;;;25.73;;
29206;SDS011;16247;50.840;4.382;2022-11-20T07:01:16;69.60;;;26.77;;
29206;SDS011;16247;50.840;4.382;2022-11-20T07:03:41;67.03;;;26.38;;
29206;SDS011;16247;50.840;4.382;2022-11-20T07:06:08;67.93;;;27.70;;
29206;SDS011;16247;50.840;4.382;2022-11-20T07:08:34;66.18;;;24.88;;
29206;SDS011;16247;50.840;4.382;2022-11-20T07:11:05;62.88;;;25.75;;
29206;SDS011;16247;50.840;4.382;2022-11-20T07:16:54;58.60;;;25.60;;
29206;SDS011;16247;50.840;4.382;2022-11-20T07:19:20;61.75;;;24.80;;
29206;SDS011;16247;50.840;4.382;2022-11-20T07:21:46;62.33;;;24.63;;
29206;SDS011;16247;50.840;4.382;2022-11-20T07:24:12;69.03;;;26.88;;
29206;SDS011;16247;50.840;4.382;2022-11-20T07:26:38;62.65;;;26.48;;
29206;SDS011;16247;50.840;4.382;2022-11-20T07:31:32;56.80;;;26.00;;
29206;SDS011;16247;50.840;4.382;2022-11-20T07:33:59;56.83;;;25.30;;
29206;SDS011;16247;50.840;4.382;2022-11-20T07:36:25;59.50;;;25.38;;
29206;SDS011;16247;50.840;4.382;2022-11-20T07:38:52;65.07;;;26.40;;
29206;SDS011;16247;50.840;4.382;2022-11-20T07:41:20;63.90;;;25.95;;
29206;SDS011;16247;50.840;4.382;2022-11-20T07:43:45;63.67;;;25.20;;
29206;SDS011;16247;50.840;4.382;2022-11-20T07:46:11;66.32;;;26.27;;
29206;SDS011;16247;50.840;4.382;2022-11-20T07:48:37;62.03;;;25.27;;
29206;SDS011;16247;50.840;4.382;2022-11-20T07:51:03;62.30;;;25.67;;
29206;SDS011;16247;50.840;4.382;2022-11-20T07:53:29;68.70;;;25.95;;
29206;SDS011;16247;50.840;4.382;2022-11-20T07:55:58;66.38;;;23.88;;
29206;SDS011;16247;50.840;4.382;2022-11-20T07:58:52;70.00;;;25.27;;
29206;SDS011;16247;50.840;4.382;2022-11-20T08:01:18;80.82;;;29.00;;
29206;SDS011;16247;50.840;4.382;2022-11-20T08:03:44;72.90;;;26.40;;
29206;SDS011;16247;50.840;4.382;2022-11-20T08:06:09;72.13;;;27.25;;
29206;SDS011;16247;50.840;4.382;2022-11-20T08:08:35;74.80;;;26.70;;
29206;SDS011;16247;50.840;4.382;2022-11-20T08:11:01;75.30;;;27.27;;
29206;SDS011;16247;50.840;4.382;2022-11-20T08:13:48;74.45;;;26.70;;
29206;SDS011;16247;50.840;4.382;2022-11-20T08:16:35;69.40;;;26.17;;
29206;SDS011;16247;50.840;4.382;2022-11-20T08:19:00;64.50;;;25.30;;
29206;SDS011;16247;50.840;4.382;2022-11-20T08:21:30;64.25;;;26.23;;
29206;SDS011;16247;50.840;4.382;2022-11-20T08:23:58;66.72;;;26.73;;
29206;SDS011;16247;50.840;4.382;2022-11-20T08:28:57;67.78;;;25.20;;
29206;SDS011;16247;50.840;4.382;2022-11-20T08:31:25;65.05;;;26.35;;
29206;SDS011;16247;50.840;4.382;2022-11-20T08:33:53;64.85;;;25.80;;
29206;SDS011;16247;50.840;4.382;2022-11-20T08:36:20;69.93;;;27.20;;
29206;SDS011;16247;50.840;4.382;2022-11-20T08:38:50;67.35;;;24.77;;
29206;SDS011;16247;50.840;4.382;2022-11-20T08:41:29;72.20;;;26.77;;
29206;SDS011;16247;50.840;4.382;2022-11-20T08:44:02;67.28;;;25.90;;
29206;SDS011;16247;50.840;4.382;2022-11-20T08:46:36;56.90;;;23.20;;
29206;SDS011;16247;50.840;4.382;2022-11-20T08:49:07;56.95;;;22.55;;
29206;SDS011;16247;50.840;4.382;2022-11-20T08:51:36;57.53;;;23.77;;
29206;SDS011;16247;50.840;4.382;2022-11-20T08:54:06;56.67;;;22.55;;
29206;SDS011;16247;50.840;4.382;2022-11-20T08:56:32;54.33;;;21.35;;
29206;SDS011;16247;50.840;4.382;2022-11-20T08:59:00;56.65;;;23.15;;
29206;SDS011;16247;50.840;4.382;2022-11-20T09:01:29;60.17;;;23.75;;
29206;SDS011;16247;50.840;4.382;2022-11-20T09:03:55;52.15;;;21.05;;
29206;SDS011;16247;50.840;4.382;2022-11-20T09:06:25;58.70;;;24.60;;
29206;SDS011;16247;50.840;4.382;2022-11-20T09:08:52;52.88;;;22.35;;
29206;SDS011;16247;50.840;4.382;2022-11-20T09:11:20;56.30;;;22.85;;
29206;SDS011;16247;50.840;4.382;2022-11-20T09:13:46;50.20;;;20.75;;
29206;SDS011;16247;50.840;4.382;2022-11-20T09:18:42;46.20;;;21.13;;
29206;SDS011;16247;50.840;4.382;2022-11-20T09:21:14;45.10;;;20.02;;
29206;SDS011;16247;50.840;4.382;2022-11-20T09:26:09;43.75;;;20.80;;
29206;SDS011;16247;50.840;4.382;2022-11-20T09:28:37;48.53;;;22.00;;
29206;SDS011;16247;50.840;4.382;2022-11-20T09:31:06;46.30;;;20.73;;
29206;SDS011;16247;50.840;4.382;2022-11-20T09:33:49;46.92;;;22.10;;
29206;SDS011;16247;50.840;4.382;2022-11-20T09:36:15;47.55;;;20.80;;
29206;SDS011;16247;50.840;4.382;2022-11-20T09:44:07;43.15;;;19.10;;
29206;SDS011;16247;50.840;4.382;2022-11-20T09:47:14;36.67;;;17.70;;
29206;SDS011;16247;50.840;4.382;2022-11-20T09:50:23;41.05;;;18.48;;
29206;SDS011;16247;50.840;4.382;2022-11-20T09:56:28;33.08;;;15.82;;
29206;SDS011;16247;50.840;4.382;2022-11-20T09:59:04;32.35;;;17.13;;
29206;SDS011;16247;50.840;4.382;2022-11-20T10:01:34;38.72;;;15.27;;
29206;SDS011;16247;50.840;4.382;2022-11-20T10:04:04;34.97;;;15.93;;
29206;SDS011;16247;50.840;4.382;2022-11-20T10:09:37;25.83;;;12.55;;
29206;SDS011;16247;50.840;4.382;2022-11-20T10:15:09;22.85;;;10.98;;
29206;SDS011;16247;50.840;4.382;2022-11-20T10:39:05;15.95;;;7.90;;
29206;SDS011;16247;50.840;4.382;2022-11-20T10:41:43;24.80;;;9.98;;
29206;SDS011;16247;50.840;4.382;2022-11-20T10:44:14;13.10;;;6.75;;
29206;SDS011;16247;50.840;4.382;2022-11-20T10:47:31;12.00;;;6.63;;
29206;SDS011;16247;50.840;4.382;2022-11-20T10:50:01;13.98;;;6.57;;
29206;SDS011;16247;50.840;4.382;2022-11-20T10:55:46;15.48;;;6.30;;
29206;SDS011;16247;50.840;4.382;2022-11-20T10:58:32;12.38;;;5.68;;
29206;SDS011;16247;50.840;4.382;2022-11-20T11:03:55;13.40;;;5.28;;
29206;SDS011;16247;50.840;4.382;2022-11-20T11:09:13;10.40;;;4.57;;
29206;SDS011;16247;50.840;4.382;2022-11-20T11:12:05;11.57;;;4.43;;
29206;SDS011;16247;50.840;4.382;2022-11-20T11:14:41;9.50;;;4.72;;
29206;SDS011;16247;50.840;4.382;2022-11-20T11:17:18;9.70;;;4.22;;
29206;SDS011;16247;50.840;4.382;2022-11-20T11:20:01;10.63;;;4.28;;
29206;SDS011;16247;50.840;4.382;2022-11-20T11:22:34;7.63;;;3.95;;
29206;SDS011;16247;50.840;4.382;2022-11-20T11:25:55;9.95;;;4.00;;
29206;SDS011;16247;50.840;4.382;2022-11-20T11:28:19;10.85;;;4.43;;
29206;SDS011;16247;50.840;4.382;2022-11-20T11:30:53;9.40;;;3.97;;
29206;SDS011;16247;50.840;4.382;2022-11-20T11:33:26;9.43;;;3.90;;
29206;SDS011;16247;50.840;4.382;2022-11-20T11:38:50;7.72;;;3.35;;
29206;SDS011;16247;50.840;4.382;2022-11-20T11:41:23;8.90;;;4.63;;
29206;SDS011;16247;50.840;4.382;2022-11-20T11:43:53;9.38;;;3.95;;
29206;SDS011;16247;50.840;4.382;2022-11-20T11:46:59;6.25;;;3.80;;
29206;SDS011;16247;50.840;4.382;2022-11-20T11:54:43;7.83;;;3.87;;
29206;SDS011;16247;50.840;4.382;2022-11-20T11:58:14;7.50;;;3.20;;
29206;SDS011;16247;50.840;4.382;2022-11-20T12:00:41;10.77;;;3.95;;
29206;SDS011;16247;50.840;4.382;2022-11-20T12:03:38;10.93;;;3.63;;
29206;SDS011;16247;50.840;4.382;2022-11-20T12:06:13;8.15;;;3.83;;
29206;SDS011;16247;50.840;4.382;2022-11-20T12:09:01;9.55;;;3.55;;
29206;SDS011;16247;50.840;4.382;2022-11-20T12:14:21;8.90;;;3.22;;
29206;SDS011;16247;50.840;4.382;2022-11-20T12:16:52;9.60;;;4.00;;
29206;SDS011;16247;50.840;4.382;2022-11-20T12:19:24;9.18;;;3.85;;
29206;SDS011;16247;50.840;4.382;2022-11-20T12:22:18;9.52;;;4.40;;
29206;SDS011;16247;50.840;4.382;2022-11-20T12:25:15;6.40;;;3.05;;
29206;SDS011;16247;50.840;4.382;2022-11-20T12:39:47;9.38;;;3.28;;
29206;SDS011;16247;50.840;4.382;2022-11-20T12:56:49;7.93;;;4.75;;
29206;SDS011;16247;50.840;4.382;2022-11-20T13:02:23;9.60;;;3.83;;
29206;SDS011;16247;50.840;4.382;2022-11-20T13:05:16;8.85;;;3.65;;
29206;SDS011;16247;50.840;4.382;2022-11-20T13:08:01;6.90;;;3.25;;
29206;SDS011;16247;50.840;4.382;2022-11-20T13:13:18;6.47;;;3.17;;
29206;SDS011;16247;50.840;4.382;2022-11-20T13:16:14;9.02;;;3.28;;
29206;SDS011;16247;50.840;4.382;2022-11-20T13:18:46;7.03;;;4.10;;
29206;SDS011;16247;50.840;4.382;2022-11-20T13:21:22;9.68;;;4.40;;
29206;SDS011;16247;50.840;4.382;2022-11-20T13:26:45;10.65;;;4.05;;
29206;SDS011;16247;50.840;4.382;2022-11-20T13:29:16;10.65;;;3.78;;
29206;SDS011;16247;50.840;4.382;2022-11-20T13:32:06;7.03;;;3.65;;
29206;SDS011;16247;50.840;4.382;2022-11-20T13:34:38;9.15;;;4.55;;
29206;SDS011;16247;50.840;4.382;2022-11-20T13:37:04;8.20;;;4.10;;
29206;SDS011;16247;50.840;4.382;2022-11-20T13:39:34;9.95;;;4.45;;
29206;SDS011;16247;50.840;4.382;2022-11-20T13:45:24;6.38;;;3.53;;
29206;SDS011;16247;50.840;4.382;2022-11-20T13:48:02;5.72;;;3.40;;
29206;SDS011;16247;50.840;4.382;2022-11-20T13:56:24;5.03;;;2.78;;
29206;SDS011;16247;50.840;4.382;2022-11-20T13:59:28;4.90;;;3.15;;
29206;SDS011;16247;50.840;4.382;2022-11-20T14:02:15;5.60;;;3.17;;
29206;SDS011;16247;50.840;4.382;2022-11-20T14:04:46;4.38;;;2.75;;
29206;SDS011;16247;50.840;4.382;2022-11-20T14:07:14;5.53;;;3.10;;
29206;SDS011;16247;50.840;4.382;2022-11-20T14:09:53;5.35;;;2.97;;
29206;SDS011;16247;50.840;4.382;2022-11-20T14:12:28;4.93;;;2.33;;
29206;SDS011;16247;50.840;4.382;2022-11-20T14:17:35;4.63;;;2.65;;
29206;SDS011;16247;50.840;4.382;2022-11-20T14:20:05;3.25;;;2.20;;
29206;SDS011;16247;50.840;4.382;2022-11-20T14:22:37;3.53;;;2.08;;
29206;SDS011;16247;50.840;4.382;2022-11-20T14:27:38;6.90;;;3.25;;
29206;SDS011;16247;50.840;4.382;2022-11-20T14:30:17;7.90;;;3.08;;
29206;SDS011;16247;50.840;4.382;2022-11-20T14:32:45;5.00;;;2.90;;
29206;SDS011;16247;50.840;4.382;2022-11-20T14:35:29;7.45;;;3.35;;
29206;SDS011;16247;50.840;4.382;2022-11-20T14:38:00;5.07;;;3.20;;
29206;SDS011;16247;50.840;4.382;2022-11-20T14:40:28;4.43;;;3.15;;
29206;SDS011;16247;50.840;4.382;2022-11-20T14:43:15;7.90;;;3.67;;
29206;SDS011;16247;50.840;4.382;2022-11-20T14:45:42;3.22;;;2.58;;
29206;SDS011;16247;50.840;4.382;2022-11-20T14:48:10;5.53;;;3.33;;
29206;SDS011;16247;50.840;4.382;2022-11-20T14:50:37;5.10;;;3.38;;
29206;SDS011;16247;50.840;4.382;2022-11-20T14:53:04;5.87;;;2.97;;
29206;SDS011;16247;50.840;4.382;2022-11-20T14:55:34;4.85;;;2.90;;
29206;SDS011;16247;50.840;4.382;2022-11-20T14:58:04;6.75;;;3.03;;
29206;SDS011;16247;50.840;4.382;2022-11-20T15:00:32;4.43;;;3.08;;
29206;SDS011;16247;50.840;4.382;2022-11-20T15:02:59;7.77;;;2.77;;
29206;SDS011;16247;50.840;4.382;2022-11-20T15:05:26;4.82;;;3.00;;
29206;SDS011;16247;50.840;4.382;2022-11-20T15:08:11;4.95;;;2.83;;
29206;SDS011;16247;50.840;4.382;2022-11-20T15:10:38;4.63;;;3.60;;
29206;SDS011;16247;50.840;4.382;2022-11-20T15:13:14;7.93;;;3.00;;
29206;SDS011;16247;50.840;4.382;2022-11-20T15:15:48;5.03;;;2.92;;
29206;SDS011;16247;50.840;4.382;2022-11-20T15:18:17;5.20;;;3.08;;
29206;SDS011;16247;50.840;4.382;2022-11-20T15:20:47;4.90;;;2.92;;
29206;SDS011;16247;50.840;4.382;2022-11-20T15:23:15;5.20;;;3.83;;
29206;SDS011;16247;50.840;4.382;2022-11-20T15:25:45;6.50;;;3.55;;
29206;SDS011;16247;50.840;4.382;2022-11-20T15:28:14;5.85;;;3.38;;
29206;SDS011;16247;50.840;4.382;2022-11-20T15:31:05;6.28;;;3.33;;
29206;SDS011;16247;50.840;4.382;2022-11-20T15:33:32;6.55;;;3.60;;
29206;SDS011;16247;50.840;4.382;2022-11-20T15:35:58;6.80;;;3.58;;
29206;SDS011;16247;50.840;4.382;2022-11-20T15:38:30;8.23;;;3.58;;
29206;SDS011;16247;50.840;4.382;2022-11-20T15:40:56;6.88;;;3.70;;
29206;SDS011;16247;50.840;4.382;2022-11-20T15:43:22;5.78;;;4.25;;
29206;SDS011;16247;50.840;4.382;2022-11-20T15:45:55;9.20;;;4.47;;
29206;SDS011;16247;50.840;4.382;2022-11-20T15:48:38;7.00;;;3.65;;
29206;SDS011;16247;50.840;4.382;2022-11-20T15:51:24;9.88;;;4.13;;
29206;SDS011;16247;50.840;4.382;2022-11-20T15:56:36;6.38;;;3.80;;
29206;SDS011;16247;50.840;4.382;2022-11-20T15:59:06;8.90;;;4.22;;
29206;SDS011;16247;50.840;4.382;2022-11-20T16:01:32;9.57;;;4.05;;
29206;SDS011;16247;50.840;4.382;2022-11-20T16:03:57;10.18;;;4.20;;
29206;SDS011;16247;50.840;4.382;2022-11-20T16:06:24;13.93;;;3.67;;
29206;SDS011;16247;50.840;4.382;2022-11-20T16:08:50;10.27;;;3.42;;
29206;SDS011;16247;50.840;4.382;2022-11-20T16:11:16;14.07;;;5.85;;
29206;SDS011;16247;50.840;4.382;2022-11-20T16:13:43;16.33;;;4.20;;
29206;SDS011;16247;50.840;4.382;2022-11-20T16:16:31;13.27;;;3.95;;
29206;SDS011;16247;50.840;4.382;2022-11-20T16:19:00;15.45;;;4.15;;
29206;SDS011;16247;50.840;4.382;2022-11-20T16:21:26;17.95;;;4.93;;
29206;SDS011;16247;50.840;4.382;2022-11-20T16:24:07;9.27;;;3.72;;
29206;SDS011;16247;50.840;4.382;2022-11-20T16:26:34;16.38;;;4.10;;
29206;SDS011;16247;50.840;4.382;2022-11-20T16:29:04;15.10;;;4.67;;
29206;SDS011;16247;50.840;4.382;2022-11-20T16:31:30;9.90;;;3.90;;
29206;SDS011;16247;50.840;4.382;2022-11-20T16:33:58;11.98;;;3.15;;
29206;SDS011;16247;50.840;4.382;2022-11-20T16:36:26;10.40;;;3.00;;
29206;SDS011;16247;50.840;4.382;2022-11-20T16:38:54;13.02;;;3.83;;
29206;SDS011;16247;50.840;4.382;2022-11-20T16:41:23;12.45;;;3.15;;
29206;SDS011;16247;50.840;4.382;2022-11-20T16:43:51;12.32;;;2.97;;
29206;SDS011;16247;50.840;4.382;2022-11-20T16:46:25;16.42;;;4.07;;
29206;SDS011;16247;50.840;4.382;2022-11-20T16:49:03;21.67;;;3.90;;
29206;SDS011;16247;50.840;4.382;2022-11-20T16:51:35;15.52;;;3.00;;
29206;SDS011;16247;50.840;4.382;2022-11-20T16:54:05;14.68;;;3.85;;
29206;SDS011;16247;50.840;4.382;2022-11-20T17:02:15;20.90;;;3.90;;
29206;SDS011;16247;50.840;4.382;2022-11-20T17:04:41;20.42;;;4.13;;
29206;SDS011;16247;50.840;4.382;2022-11-20T17:07:06;17.70;;;3.85;;
29206;SDS011;16247;50.840;4.382;2022-11-20T17:09:34;15.27;;;3.45;;
29206;SDS011;16247;50.840;4.382;2022-11-20T17:12:02;21.10;;;4.93;;
29206;SDS011;16247;50.840;4.382;2022-11-20T17:14:30;15.25;;;3.53;;
29206;SDS011;16247;50.840;4.382;2022-11-20T17:17:01;16.75;;;4.00;;
29206;SDS011;16247;50.840;4.382;2022-11-20T17:19:27;19.38;;;4.72;;
29206;SDS011;16247;50.840;4.382;2022-11-20T17:21:53;20.42;;;4.93;;
29206;SDS011;16247;50.840;4.382;2022-11-20T17:24:19;15.30;;;4.13;;
29206;SDS011;16247;50.840;4.382;2022-11-20T17:26:44;19.95;;;4.65;;